createdAt,value
2022-08-07T00:02:37.513Z,29.89
2022-08-07T00:04:09.632Z,29.89
2022-08-07T00:06:45.616Z,29.89
2022-08-07T00:09:21.146Z,29.89
2022-08-07T00:11:56.196Z,29.88
2022-08-07T00:14:31.480Z,29.90
2022-08-07T00:17:00.312Z,29.89
2022-08-07T00:19:34.019Z,29.90
2022-08-07T00:22:24.500Z,29.89
2022-08-07T00:25:07.351Z,29.89
2022-08-07T00:27:52.698Z,29.89
2022-08-07T00:30:27.059Z,29.89
2022-08-07T00:33:00.034Z,29.89
2022-08-07T00:35:29.632Z,29.89
2022-08-07T00:37:58.171Z,29.89
2022-08-07T00:40:36.337Z,29.89
2022-08-07T00:43:09.969Z,29.89
2022-08-07T00:45:41.316Z,29.89
2022-08-07T00:48:13.862Z,29.90
2022-08-07T00:50:50.548Z,29.89
2022-08-07T00:53:21.982Z,29.89
2022-08-07T00:56:02.707Z,29.89
2022-08-07T00:58:31.526Z,29.89
2022-08-07T01:00:59.286Z,29.90
2022-08-07T01:03:55.419Z,29.89
2022-08-07T01:06:14.168Z,29.89
2022-08-07T01:08:52.931Z,29.89
2022-08-07T01:12:23.866Z,29.90
2022-08-07T01:14:09.155Z,29.90
2022-08-07T01:16:36.959Z,29.89
2022-08-07T01:19:18.550Z,29.90
2022-08-07T01:21:49.298Z,29.89
2022-08-07T01:24:23.196Z,29.90
2022-08-07T01:26:52.675Z,29.89
2022-08-07T01:29:31.422Z,29.90
2022-08-07T01:32:05.464Z,29.90
2022-08-07T01:34:34.217Z,29.89
2022-08-07T01:37:13.610Z,29.91
2022-08-07T01:39:46.973Z,29.90
2022-08-07T01:42:40.121Z,29.91
2022-08-07T01:45:26.625Z,29.91
2022-08-07T01:48:29.654Z,29.90
2022-08-07T01:50:58.861Z,29.90
2022-08-07T01:54:09.351Z,29.90
2022-08-07T01:56:23.130Z,29.90
2022-08-07T01:59:08.321Z,29.90
2022-08-07T02:02:00.065Z,29.90
2022-08-07T02:04:39.041Z,29.90
2022-08-07T02:07:35.757Z,29.89
2022-08-07T02:10:05.603Z,29.90
2022-08-07T02:12:38.469Z,29.90
2022-08-07T02:15:11.382Z,29.90
2022-08-07T02:17:49.424Z,29.88
2022-08-07T02:20:23.371Z,29.90
2022-08-07T02:22:55.108Z,29.90
2022-08-07T02:25:32.168Z,29.90
2022-08-07T02:28:12.213Z,29.90
2022-08-07T02:30:40.670Z,29.90
2022-08-07T02:33:10.694Z,29.90
2022-08-07T02:36:30.728Z,29.89
2022-08-07T02:38:33.442Z,29.89
2022-08-07T02:41:04.324Z,29.89
2022-08-07T02:43:36.093Z,29.89
2022-08-07T02:46:07.469Z,29.89
2022-08-07T02:48:36.428Z,29.90
2022-08-07T02:51:29.235Z,29.90
2022-08-07T02:54:00.648Z,29.90
2022-08-07T02:56:31.325Z,29.90
2022-08-07T02:59:00.454Z,29.89
2022-08-07T03:01:35.700Z,29.89
2022-08-07T03:04:07.754Z,29.90
2022-08-07T03:06:42.071Z,29.90
2022-08-07T03:09:13.789Z,29.89
2022-08-07T03:11:52.662Z,29.90
2022-08-07T03:14:28.150Z,29.91
2022-08-07T03:16:56.543Z,29.90
2022-08-07T03:19:24.788Z,29.91
2022-08-07T03:21:58.729Z,29.91
2022-08-07T03:24:28.035Z,29.90
2022-08-07T03:27:01.447Z,29.90
2022-08-07T03:29:49.577Z,29.89
2022-08-07T03:32:22.677Z,29.90
2022-08-07T03:35:16.713Z,29.90
2022-08-07T03:37:46.413Z,29.90
2022-08-07T03:40:23.015Z,29.90
2022-08-07T03:42:55.214Z,29.90
2022-08-07T03:45:30.943Z,29.91
2022-08-07T03:48:10.093Z,29.89
2022-08-07T03:50:39.859Z,29.89
2022-08-07T03:53:11.116Z,29.90
2022-08-07T03:55:57.394Z,29.91
2022-08-07T03:59:05.350Z,29.91
2022-08-07T04:01:16.136Z,29.90
2022-08-07T04:03:53.233Z,29.90
2022-08-07T04:06:37.171Z,29.89
2022-08-07T04:09:15.922Z,29.89
2022-08-07T04:12:27.715Z,29.91
2022-08-07T04:14:38.074Z,29.89
2022-08-07T04:17:20.518Z,29.90
2022-08-07T04:19:51.885Z,29.90
2022-08-07T04:22:27.469Z,29.89
2022-08-07T04:25:01.153Z,29.89
2022-08-07T04:27:35.444Z,29.90
2022-08-07T04:30:13.447Z,29.90
2022-08-07T04:33:00.754Z,29.89
2022-08-07T04:35:35.195Z,29.89
2022-08-07T04:38:11.550Z,29.89
2022-08-07T04:40:52.616Z,29.90
2022-08-07T04:44:13.188Z,29.90
2022-08-07T04:46:40.042Z,29.90
2022-08-07T04:49:42.074Z,29.89
2022-08-07T04:52:25.281Z,29.89
2022-08-07T04:54:58.126Z,29.89
2022-08-07T04:58:15.791Z,29.89
2022-08-07T05:00:30.497Z,29.89
2022-08-07T05:03:17.124Z,29.89
2022-08-07T05:06:19.102Z,29.89
2022-08-07T05:09:09.648Z,29.90
2022-08-07T05:11:57.171Z,29.89
2022-08-07T05:14:56.349Z,29.89
2022-08-07T05:17:52.900Z,29.89
2022-08-07T05:20:18.059Z,29.89
2022-08-07T05:22:47.102Z,29.90
2022-08-07T05:25:25.659Z,29.90
2022-08-07T05:28:20.468Z,29.89
2022-08-07T05:30:53.381Z,29.89
2022-08-07T05:33:21.616Z,29.90
2022-08-07T05:35:53.120Z,29.90
2022-08-07T05:39:00.302Z,29.89
2022-08-07T05:41:15.805Z,29.90
2022-08-07T05:44:01.499Z,29.89
2022-08-07T05:46:37.608Z,29.89
2022-08-07T05:49:11.799Z,29.89
2022-08-07T05:51:43.546Z,29.90
2022-08-07T05:54:31.513Z,29.89
2022-08-07T05:57:05.083Z,29.90
2022-08-07T05:59:38.978Z,29.89
2022-08-07T06:02:28.599Z,29.90
2022-08-07T06:05:01.921Z,29.90
2022-08-07T06:08:14.611Z,29.89
2022-08-07T06:10:19.290Z,29.90
2022-08-07T06:12:48.842Z,29.89
2022-08-07T06:15:19.697Z,29.89
2022-08-07T06:17:53.567Z,29.89
2022-08-07T06:20:50.011Z,29.89
2022-08-07T06:23:46.068Z,29.89
2022-08-07T06:26:00.477Z,29.89
2022-08-07T06:28:28.533Z,29.89
2022-08-07T06:30:58.195Z,29.89
2022-08-07T06:33:27.509Z,29.89
2022-08-07T06:36:11.861Z,29.89
2022-08-07T06:40:12.855Z,29.89
2022-08-07T06:42:02.605Z,29.89
2022-08-07T06:44:50.956Z,29.88
2022-08-07T06:47:19.572Z,29.89
2022-08-07T06:49:52.395Z,29.89
2022-08-07T06:52:31.705Z,29.89
2022-08-07T06:55:33.375Z,29.88
2022-08-07T06:58:04.706Z,29.88
2022-08-07T07:00:39.249Z,29.88
2022-08-07T07:03:13.577Z,29.90
2022-08-07T07:06:05.121Z,29.90
2022-08-07T07:08:31.129Z,29.89
2022-08-07T07:11:01.380Z,29.89
2022-08-07T07:13:58.511Z,29.88
2022-08-07T07:16:31.036Z,29.88
2022-08-07T07:19:11.164Z,29.88
2022-08-07T07:22:04.761Z,29.88
2022-08-07T07:24:43.008Z,29.88
2022-08-07T07:27:26.730Z,29.88
2022-08-07T07:30:10.078Z,29.87
2022-08-07T07:32:40.630Z,29.88
2022-08-07T07:35:11.147Z,29.87
2022-08-07T07:37:49.528Z,29.88
2022-08-07T07:40:21.197Z,29.87
2022-08-07T07:42:54.473Z,29.87
2022-08-07T07:46:53.525Z,29.88
2022-08-07T07:48:35.324Z,29.89
2022-08-07T07:51:08.053Z,29.87
2022-08-07T07:53:51.824Z,29.88
2022-08-07T07:56:30.245Z,29.88
2022-08-07T07:58:59.799Z,29.88
2022-08-07T08:02:03.992Z,29.88
2022-08-07T08:04:16.830Z,29.88
2022-08-07T08:06:50.779Z,29.89
2022-08-07T08:09:20.598Z,29.89
2022-08-07T08:12:02.676Z,29.88
2022-08-07T08:14:36.608Z,29.88
2022-08-07T08:17:56.118Z,29.88
2022-08-07T08:20:20.037Z,29.89
2022-08-07T08:23:11.492Z,29.88
2022-08-07T08:26:06.882Z,29.88
2022-08-07T08:28:39.162Z,29.87
2022-08-07T08:31:15.991Z,29.88
2022-08-07T08:33:49.764Z,29.88
2022-08-07T08:36:25.744Z,29.88
2022-08-07T08:38:57.580Z,29.87
2022-08-07T08:41:31.376Z,29.88
2022-08-07T08:44:29.452Z,29.87
2022-08-07T08:46:56.795Z,29.87
2022-08-07T08:50:02.167Z,29.87
2022-08-07T08:52:30.332Z,29.88
2022-08-07T08:55:07.823Z,29.88
2022-08-07T08:57:37.603Z,29.88
2022-08-07T09:00:09.217Z,29.87
2022-08-07T09:02:37.445Z,29.88
2022-08-07T09:05:31.966Z,29.87
2022-08-07T09:08:17.731Z,29.88
2022-08-07T09:10:54.346Z,29.88
2022-08-07T09:13:37.741Z,29.87
2022-08-07T09:16:26.604Z,29.88
2022-08-07T09:19:53.375Z,29.87
2022-08-07T09:22:36.771Z,29.87
2022-08-07T09:25:01.640Z,29.87
2022-08-07T09:27:59.641Z,29.88
2022-08-07T09:30:29.680Z,29.87
2022-08-07T09:33:24.482Z,29.88
2022-08-07T09:36:09.525Z,29.87
2022-08-07T09:38:43.321Z,29.88
2022-08-07T09:41:43.167Z,29.86
2022-08-07T09:47:56.157Z,29.86
2022-08-07T09:50:48.513Z,29.87
2022-08-07T09:53:22.541Z,29.87
2022-08-07T09:56:05.242Z,29.86
2022-08-07T09:58:51.454Z,29.87
2022-08-07T10:01:51.843Z,29.87
2022-08-07T10:04:38.081Z,29.87
2022-08-07T10:07:25.969Z,29.87
2022-08-07T10:10:12.129Z,29.87
2022-08-07T10:13:01.236Z,29.87
2022-08-07T10:15:30.760Z,29.88
2022-08-07T10:18:19.958Z,29.87
2022-08-07T10:21:05.421Z,29.86
2022-08-07T10:24:06.552Z,29.88
2022-08-07T10:26:51.807Z,29.86
2022-08-07T10:29:26.460Z,29.87
2022-08-07T10:31:58.081Z,29.87
2022-08-07T10:34:42.793Z,29.87
2022-08-07T10:38:00.162Z,29.87
2022-08-07T10:40:42.334Z,29.87
2022-08-07T10:43:34.266Z,29.87
2022-08-07T10:46:06.595Z,29.88
2022-08-07T10:48:39.971Z,29.86
2022-08-07T10:51:16.900Z,29.87
2022-08-07T10:54:00.253Z,29.89
2022-08-07T10:56:46.171Z,29.87
2022-08-07T10:59:36.987Z,29.87
2022-08-07T11:02:12.475Z,29.88
2022-08-07T11:05:13.047Z,29.87
2022-08-07T11:08:02.656Z,29.87
2022-08-07T11:10:34.918Z,29.88
2022-08-07T11:14:41.772Z,29.88
2022-08-07T11:16:02.591Z,29.87
2022-08-07T11:18:51.034Z,29.88
2022-08-07T11:21:35.146Z,29.88
2022-08-07T11:24:22.380Z,29.87
2022-08-07T11:27:06.434Z,29.87
2022-08-07T11:29:48.318Z,29.86
2022-08-07T11:32:29.696Z,29.87
2022-08-07T11:35:09.414Z,29.88
2022-08-07T11:37:58.497Z,29.87
2022-08-07T11:40:57.961Z,29.87
2022-08-07T11:44:10.658Z,29.88
2022-08-07T11:46:43.802Z,29.88
2022-08-07T11:49:51.539Z,29.87
2022-08-07T11:52:01.021Z,29.88
2022-08-07T11:54:46.342Z,29.88
2022-08-07T11:57:58.111Z,29.86
2022-08-07T12:00:19.358Z,29.87
2022-08-07T12:02:56.061Z,29.87
2022-08-07T12:05:47.359Z,29.87
2022-08-07T12:08:25.838Z,29.87
2022-08-07T12:11:20.732Z,29.87
2022-08-07T12:14:03.795Z,29.87
2022-08-07T12:16:34.493Z,29.87
2022-08-07T12:19:21.256Z,29.87
2022-08-07T12:22:37.406Z,29.86
2022-08-07T12:26:02.978Z,29.87
2022-08-07T12:28:12.712Z,29.86
2022-08-07T12:30:46.939Z,29.87
2022-08-07T12:33:28.279Z,29.86
2022-08-07T12:36:10.969Z,29.87
2022-08-07T12:38:43.249Z,29.87
2022-08-07T12:41:15.090Z,29.87
2022-08-07T12:44:04.621Z,29.86
2022-08-07T12:46:34.610Z,29.86
2022-08-07T12:49:09.914Z,29.86
2022-08-07T12:52:13.785Z,29.86
2022-08-07T12:55:01.515Z,29.87
2022-08-07T12:57:59.168Z,29.88
2022-08-07T13:00:26.092Z,29.88
2022-08-07T13:03:01.293Z,29.88
2022-08-07T13:06:03.197Z,29.87
2022-08-07T13:08:25.708Z,29.88
2022-08-07T13:11:03.096Z,29.87
2022-08-07T13:13:47.201Z,29.87
2022-08-07T13:16:36.613Z,29.87
2022-08-07T13:19:03.960Z,29.87
2022-08-07T13:21:57.715Z,29.88
2022-08-07T13:24:30.443Z,29.88
2022-08-07T13:27:05.871Z,29.88
2022-08-07T13:29:34.916Z,29.86
2022-08-07T13:32:23.704Z,29.88
2022-08-07T13:34:57.610Z,29.86
2022-08-07T13:37:30.499Z,29.88
2022-08-07T13:40:36.760Z,29.87
2022-08-07T13:43:11.933Z,29.88
2022-08-07T13:46:20.949Z,29.87
2022-08-07T13:48:34.440Z,29.87
2022-08-07T13:51:28.083Z,29.88
2022-08-07T13:54:00.181Z,29.87
2022-08-07T13:56:36.238Z,29.87
2022-08-07T13:59:12.135Z,29.87
2022-08-07T14:01:51.449Z,29.87
2022-08-07T14:04:35.433Z,29.88
2022-08-07T14:07:09.471Z,29.87
2022-08-07T14:10:02.956Z,29.88
2022-08-07T14:12:31.608Z,29.88
2022-08-07T14:15:05.839Z,29.88
2022-08-07T14:18:13.114Z,29.87
2022-08-07T14:20:43.229Z,29.87
2022-08-07T14:23:58.850Z,29.88
2022-08-07T14:26:28.399Z,29.88
2022-08-07T14:29:05.950Z,29.88
2022-08-07T14:31:56.029Z,29.87
2022-08-07T14:34:29.705Z,29.87
2022-08-07T14:37:01.809Z,29.87
2022-08-07T14:40:18.045Z,29.87
2022-08-07T14:42:23.162Z,29.88
2022-08-07T14:44:53.509Z,29.87
2022-08-07T14:47:21.283Z,29.87
2022-08-07T14:49:58.497Z,29.87
2022-08-07T14:52:28.826Z,29.87
2022-08-07T14:54:58.560Z,29.88
2022-08-07T14:57:54.394Z,29.87
2022-08-07T15:03:16.485Z,29.87
2022-08-07T15:05:55.284Z,29.88
2022-08-07T15:11:53.412Z,29.87
2022-08-07T15:14:20.158Z,29.87
2022-08-07T15:16:55.009Z,29.86
2022-08-07T15:20:30.385Z,29.87
2022-08-07T15:25:18.431Z,29.87
2022-08-07T15:28:02.019Z,29.87
2022-08-07T15:30:59.456Z,29.87
2022-08-07T15:33:33.394Z,29.87
2022-08-07T15:36:05.426Z,29.87
2022-08-07T15:38:58.972Z,29.87
2022-08-07T15:42:42.213Z,29.88
2022-08-07T15:44:12.414Z,29.87
2022-08-07T15:50:03.864Z,29.88
2022-08-07T15:52:29.615Z,29.88
2022-08-07T15:55:03.821Z,29.87
2022-08-07T15:57:39.989Z,29.87
2022-08-07T16:00:32.004Z,29.88
2022-08-07T16:03:21.520Z,29.88
2022-08-07T16:05:58.984Z,29.88
2022-08-07T16:08:37.902Z,29.88
2022-08-07T16:11:26.251Z,29.88
2022-08-07T16:14:09.417Z,29.88
2022-08-07T16:16:56.858Z,29.87
2022-08-07T16:19:43.204Z,29.87
2022-08-07T16:22:54.927Z,29.87
2022-08-07T16:25:54.340Z,29.87
2022-08-07T16:30:06.617Z,29.87
2022-08-07T16:31:57.420Z,29.87
2022-08-07T16:34:34.880Z,29.87
2022-08-07T16:38:06.452Z,29.86
2022-08-07T16:40:28.382Z,29.87
2022-08-07T16:43:03.405Z,29.88
2022-08-07T16:46:47.167Z,29.87
2022-08-07T16:48:34.315Z,29.87
2022-08-07T16:51:51.788Z,29.87
2022-08-07T16:54:09.002Z,29.87
2022-08-07T16:56:38.842Z,29.87
2022-08-07T16:59:18.053Z,29.86
2022-08-07T17:01:59.503Z,29.86
2022-08-07T17:04:30.511Z,29.87
2022-08-07T17:07:17.948Z,29.88
2022-08-07T17:10:07.426Z,29.86
2022-08-07T17:12:47.201Z,29.87
2022-08-07T17:15:15.605Z,29.86
2022-08-07T17:17:49.149Z,29.86
2022-08-07T17:20:22.918Z,29.86
2022-08-07T17:23:14.786Z,29.87
2022-08-07T17:25:52.294Z,29.87
2022-08-07T17:28:24.608Z,29.86
2022-08-07T17:31:16.418Z,29.87
2022-08-07T17:34:17.950Z,29.86
2022-08-07T17:36:57.936Z,29.87
2022-08-07T17:39:58.908Z,29.87
2022-08-07T17:42:28.255Z,29.86
2022-08-07T17:44:58.391Z,29.87
2022-08-07T17:47:42.159Z,29.87
2022-08-07T17:50:18.982Z,29.85
2022-08-07T17:52:52.302Z,29.86
2022-08-07T17:56:00.112Z,29.87
2022-08-07T17:58:30.563Z,29.87
2022-08-07T18:00:59.522Z,29.86
2022-08-07T18:04:03.838Z,29.86
2022-08-07T18:06:38.155Z,29.86
2022-08-07T18:09:08.747Z,29.86
2022-08-07T18:12:16.451Z,29.86
2022-08-07T18:15:08.761Z,29.86
2022-08-07T18:18:46.012Z,29.86
2022-08-07T18:21:06.940Z,29.86
2022-08-07T18:23:43.733Z,29.86
2022-08-07T18:26:20.168Z,29.86
2022-08-07T18:30:08.343Z,29.87
2022-08-07T18:32:08.456Z,29.85
2022-08-07T18:35:08.296Z,29.86
2022-08-07T18:38:56.079Z,29.85
2022-08-07T18:40:43.076Z,29.86
2022-08-07T18:43:37.007Z,29.86
2022-08-07T18:46:26.776Z,29.86
2022-08-07T18:50:32.560Z,29.86
2022-08-07T18:52:37.581Z,29.86
2022-08-07T18:54:50.954Z,29.86
2022-08-07T18:57:36.926Z,29.85
2022-08-07T19:00:04.875Z,29.85
2022-08-07T19:02:55.952Z,29.85
2022-08-07T19:06:04.141Z,29.85
2022-08-07T19:08:26.490Z,29.86
2022-08-07T19:10:59.580Z,29.86
2022-08-07T19:13:35.701Z,29.84
2022-08-07T19:17:05.644Z,29.84
2022-08-07T19:19:08.343Z,29.84
2022-08-07T19:21:53.572Z,29.85
2022-08-07T19:24:44.547Z,29.86
2022-08-07T19:28:56.895Z,29.84
2022-08-07T19:31:04.784Z,29.85
2022-08-07T19:32:52.522Z,29.85
2022-08-07T19:35:33.308Z,29.84
2022-08-07T19:38:02.615Z,29.85
2022-08-07T19:40:36.597Z,29.83
2022-08-07T19:43:21.200Z,29.84
2022-08-07T19:46:07.085Z,29.84
2022-08-07T19:48:43.016Z,29.83
2022-08-07T19:51:20.053Z,29.84
2022-08-07T19:54:29.776Z,29.83
2022-08-07T19:57:52.349Z,29.84
2022-08-07T19:59:42.149Z,29.83
2022-08-07T20:02:18.951Z,29.83
2022-08-07T20:04:49.341Z,29.84
2022-08-07T20:07:23.801Z,29.83
2022-08-07T20:10:37.168Z,29.83
2022-08-07T20:12:53.491Z,29.83
2022-08-07T20:15:24.663Z,29.83
2022-08-07T20:18:04.322Z,29.83
2022-08-07T20:20:33.201Z,29.83
2022-08-07T20:23:22.917Z,29.82
2022-08-07T20:25:51.150Z,29.81
2022-08-07T20:28:20.801Z,29.81
2022-08-07T20:30:57.257Z,29.82
2022-08-07T20:33:38.027Z,29.83
2022-08-07T20:36:06.985Z,29.82
2022-08-07T20:38:35.907Z,29.83
2022-08-07T20:41:25.931Z,29.83
2022-08-07T20:43:57.479Z,29.81
2022-08-07T20:46:33.421Z,29.82
2022-08-07T20:50:00.247Z,29.82
2022-08-07T20:51:58.397Z,29.81
2022-08-07T20:54:29.845Z,29.82
2022-08-07T20:57:03.241Z,29.81
2022-08-07T21:00:05.541Z,29.82
2022-08-07T21:02:41.463Z,29.81
2022-08-07T21:05:43.054Z,29.81
2022-08-07T21:08:14.457Z,29.82
2022-08-07T21:10:43.562Z,29.80
2022-08-07T21:13:12.539Z,29.81
2022-08-07T21:15:48.190Z,29.81
2022-08-07T21:18:33.506Z,29.81
2022-08-07T21:21:01.661Z,29.81
2022-08-07T21:23:49.466Z,29.81
2022-08-07T21:26:21.902Z,29.80
2022-08-07T21:28:54.887Z,29.80
2022-08-07T21:31:49.216Z,29.80
2022-08-07T21:34:35.489Z,29.80
2022-08-07T21:37:22.644Z,29.80
2022-08-07T21:40:05.353Z,29.80
2022-08-07T21:42:54.102Z,29.80
2022-08-07T21:46:10.179Z,29.79
2022-08-07T21:48:08.584Z,29.79
2022-08-07T21:50:59.108Z,29.81
2022-08-07T21:53:32.756Z,29.80
2022-08-07T21:56:37.755Z,29.80
2022-08-07T21:59:16.253Z,29.79
2022-08-07T22:02:11.450Z,29.80
2022-08-07T22:04:53.939Z,29.79
2022-08-07T22:07:31.462Z,29.79
2022-08-07T22:10:04.305Z,29.80
2022-08-07T22:12:59.433Z,29.79
2022-08-07T22:16:43.660Z,29.79
2022-08-07T22:18:22.607Z,29.80
2022-08-07T22:20:56.018Z,29.80
2022-08-07T22:23:45.151Z,29.79
2022-08-07T22:26:15.147Z,29.79
2022-08-07T22:28:48.241Z,29.78
2022-08-07T22:31:45.375Z,29.79
2022-08-07T22:34:15.133Z,29.78
2022-08-07T22:36:42.275Z,29.79
2022-08-07T22:39:23.319Z,29.79
2022-08-07T22:42:03.033Z,29.78
2022-08-07T22:44:58.651Z,29.78
2022-08-07T22:47:26.616Z,29.78
2022-08-07T22:50:03.350Z,29.79
2022-08-07T22:52:43.370Z,29.78
2022-08-07T22:55:22.680Z,29.78
2022-08-07T22:58:00.619Z,29.78
2022-08-07T23:00:34.645Z,29.77
2022-08-07T23:03:09.385Z,29.77
2022-08-07T23:06:09.778Z,29.77
2022-08-07T23:08:34.332Z,29.78
2022-08-07T23:11:13.027Z,29.78
2022-08-07T23:14:15.596Z,29.78
2022-08-07T23:16:55.474Z,29.76
2022-08-07T23:20:03.304Z,29.77
2022-08-07T23:22:36.558Z,29.77
2022-08-07T23:25:28.683Z,29.76
2022-08-07T23:28:22.072Z,29.76
2022-08-07T23:31:06.375Z,29.77
2022-08-07T23:34:34.063Z,29.77
2022-08-07T23:36:33.492Z,29.76
2022-08-07T23:39:41.161Z,29.77
2022-08-07T23:42:15.677Z,29.77
2022-08-07T23:44:54.913Z,29.77
2022-08-07T23:47:42.471Z,29.76
2022-08-07T23:50:24.239Z,29.77
2022-08-07T23:53:01.511Z,29.75
2022-08-07T23:55:53.197Z,29.76
2022-08-07T23:58:32.117Z,29.75
